Airfield :
LOGIN :

Register | Disclaimer

   EN    FR    IT 

 










Legend :    VFR   Marginal VFR   IFR   Intensive IFR   Very Intensive IFR
Visi :
Ceiling :
>= 8 km
>= 3000ft
5 to 8 km
1000 to 3000 ft
1500m to 5 km
500 to 1000 ft
800 to 1500m
200 to 500 ft
< 800m
< 200 ft
Symbols :   Thunderstorms  Fog  Heavy snow  Heavy precipitations  Wind > 20 kt
SIGMETs :     Misc.  Thunderstorms  Icing  Turbulence  Mountain Waves  Volcanic Ashes






- Airport Elevation : 1416 ft
- IATA code : ZRH


LSZH - Zurich

CURRENT METAR :
  • 161120Z 05004KT 350V090 9999 FEW011 11/07 Q1021 NOSIG

EXPIRED METARs :
  • 161050Z 09004KT 050V140 9999 FEW009 SCT011 11/07 Q1021 NOSIG
  • 161020Z 11005KT 080V150 8000 FEW006 SCT008 09/07 Q1021 NOSIG
  • 160950Z VRB02KT 7000 FEW006 BKN008 09/06 Q1021 BECMG SCT008
  • 160920Z VRB02KT 7000 FEW006 BKN007 08/06 Q1021 BECMG SCT007
  • 160850Z VRB03KT 6000 FEW006 BKN007 07/06 Q1021 NOSIG

TAF TAF LSZH
Valid from the 16 at 12:00 until the 17 at 18:00 UTC


161125Z 1612/1718 VRB02KT 9999 FEW009 SCT011 TX14/1614Z TN03/1704Z TX14/1714Z
BECMG 1612/1613 CAVOK
TEMPO 1612/1616 03005KT
BECMG 1622/1624 2000 BCFG SCT003
BECMG 1700/1703 0600 FG VV002
BECMG 1703/1706 0300 FG VV001
BECMG 1708/1710 3000 BR BKN005
BECMG 1710/1713 CAVOK
ATIS : +41 43 816 2295 (DEP) +41 43 816 2294 (ARR)



MET'MAP, your aeronautical weather chart ! - Copyright ORBIFLY December 2007 - Disclaimer

ORBIFLY MET'MAP TEAM :

Programming & Development : Alexandra Zaïnal
Concept & original design : Baudouin d'Aumeries
Assistance for programming : Marc-Olivier Méhu
Technical & hardware support : Manuel Goepfert

Contact : metmap@orbifly.com




SOURCES & CREDITS :

   NOAA